Time;durP1;ratioP1;P1;durP2;ratioP2;P2;SDS_P1;SDS_P2;PMS_P1;PMS_P2;Temp;Humidity;BMP_temperature;BMP_pressure;BME280_temperature;BME280_humidity;BME280_pressure;Samples;Min_cycle;Max_cycle;Signal;HPM_P1;HPM_P2
2024/03/12 00:00:53;;;;;;;7.13;5.80;;;3.80;99.90;;;;;;5048501;28;20475;-59
2024/03/12 00:03:19;;;;;;;7.40;4.93;;;3.80;99.90;;;;;;5049014;28;20817;-60
2024/03/12 00:05:44;;;;;;;7.17;4.70;;;3.80;99.90;;;;;;5050054;28;20465;-58
2024/03/12 00:08:10;;;;;;;5.87;4.70;;;3.70;99.90;;;;;;5047412;28;20444;-60
2024/03/12 00:10:36;;;;;;;5.30;4.40;;;3.70;99.90;;;;;;5042239;28;20237;-60
2024/03/12 00:13:01;;;;;;;6.30;3.60;;;3.70;99.90;;;;;;5047211;28;20190;-60
2024/03/12 00:15:28;;;;;;;5.70;3.40;;;3.70;99.90;;;;;;5041134;28;20180;-60
2024/03/12 00:17:54;;;;;;;5.33;4.13;;;3.70;99.90;;;;;;5043052;28;20236;-60
2024/03/12 00:20:29;;;;;;;5.37;3.90;;;3.70;99.90;;;;;;5043939;28;20456;-60
2024/03/12 00:22:55;;;;;;;8.63;4.30;;;3.70;99.90;;;;;;5049588;28;21184;-60
2024/03/12 00:25:21;;;;;;;4.23;3.70;;;3.70;99.90;;;;;;5040383;28;20553;-60
2024/03/12 00:27:47;;;;;;;5.40;3.97;;;3.60;99.90;;;;;;5047344;28;20543;-60
2024/03/12 00:30:14;;;;;;;3.87;3.30;;;3.60;99.90;;;;;;5043392;28;20207;-59
2024/03/12 00:32:41;;;;;;;7.60;3.70;;;3.50;99.90;;;;;;5044623;28;20418;-60
2024/03/12 00:35:10;;;;;;;5.20;3.80;;;3.50;99.90;;;;;;5047358;28;20917;-60
2024/03/12 00:37:38;;;;;;;3.83;3.43;;;3.50;99.90;;;;;;5045546;28;20423;-60
2024/03/12 00:40:05;;;;;;;6.07;3.40;;;3.40;99.90;;;;;;5038613;28;20460;-60
2024/03/12 00:42:31;;;;;;;7.43;3.90;;;3.40;99.90;;;;;;5043657;28;20799;-59
2024/03/12 00:44:56;;;;;;;5.50;3.30;;;3.40;99.90;;;;;;5043187;28;20458;-59
2024/03/12 00:47:22;;;;;;;3.90;3.40;;;3.50;99.90;;;;;;5048112;28;20181;-60
2024/03/12 00:49:50;;;;;;;4.47;3.30;;;3.50;99.90;;;;;;5043879;28;20640;-59
2024/03/12 00:52:17;;;;;;;5.00;3.73;;;3.40;99.90;;;;;;5044375;28;20270;-60
2024/03/12 00:54:45;;;;;;;4.37;3.50;;;3.40;99.90;;;;;;5048892;28;20413;-59
2024/03/12 00:57:13;;;;;;;4.97;3.40;;;3.40;99.90;;;;;;5042261;28;20421;-60
2024/03/12 00:59:40;;;;;;;6.40;3.77;;;3.40;99.90;;;;;;5046746;28;20445;-59
2024/03/12 01:02:07;;;;;;;3.40;3.17;;;3.40;99.90;;;;;;5028378;28;20421;-59
2024/03/12 01:04:32;;;;;;;3.53;3.13;;;3.30;99.90;;;;;;5047632;28;20425;-59
2024/03/12 01:06:58;;;;;;;3.97;3.40;;;3.30;99.90;;;;;;5045264;28;20426;-59
2024/03/12 01:09:27;;;;;;;5.60;3.17;;;3.20;99.90;;;;;;5040670;28;20190;-59
2024/03/12 01:11:53;;;;;;;4.13;3.30;;;3.20;99.90;;;;;;5044144;28;20460;-59
2024/03/12 01:14:18;;;;;;;3.40;3.10;;;3.10;99.90;;;;;;5041955;28;20433;-59
2024/03/12 01:16:44;;;;;;;4.07;2.80;;;3.10;99.90;;;;;;5042569;28;20425;-60
2024/03/12 01:19:11;;;;;;;3.03;2.80;;;3.00;99.90;;;;;;5043799;28;20312;-59
2024/03/12 01:21:37;;;;;;;3.10;2.80;;;3.00;99.90;;;;;;5046117;28;20195;-60
2024/03/12 01:24:04;;;;;;;3.83;2.60;;;3.00;99.90;;;;;;5046482;28;20419;-59
2024/03/12 01:26:30;;;;;;;2.90;2.70;;;3.00;99.90;;;;;;5044761;28;20202;-60
2024/03/12 01:28:56;;;;;;;4.43;3.00;;;2.90;99.90;;;;;;5023062;28;20469;-59
2024/03/12 01:31:22;;;;;;;5.83;3.40;;;2.80;99.90;;;;;;5040395;28;20446;-58
2024/03/12 01:33:49;;;;;;;4.83;3.33;;;2.80;99.90;;;;;;5023162;28;20183;-60
2024/03/12 01:36:29;;;;;;;3.10;2.80;;;2.80;99.90;;;;;;5047854;28;20187;-60
2024/03/12 01:38:55;;;;;;;7.63;3.13;;;2.70;99.90;;;;;;5039381;28;20509;-59
2024/03/12 01:41:21;;;;;;;4.73;2.80;;;2.70;99.90;;;;;;5043839;28;20430;-59
2024/03/12 01:43:59;;;;;;;5.80;3.93;;;2.70;99.90;;;;;;5048216;28;20183;-58
2024/03/12 01:46:28;;;;;;;4.23;3.13;;;2.70;99.90;;;;;;5047972;28;20826;-60
2024/03/12 01:48:55;;;;;;;6.50;3.27;;;2.70;99.90;;;;;;5042184;28;20457;-59
2024/03/12 01:51:21;;;;;;;4.13;3.40;;;2.70;99.90;;;;;;5043775;28;20491;-58
2024/03/12 01:53:47;;;;;;;3.90;3.07;;;2.70;99.90;;;;;;5046352;28;21217;-59
2024/03/12 01:56:13;;;;;;;5.00;3.37;;;2.70;99.90;;;;;;5047175;28;20558;-58
2024/03/12 01:58:40;;;;;;;5.30;3.03;;;2.70;99.90;;;;;;5023953;28;20447;-58
2024/03/12 02:01:06;;;;;;;5.23;3.20;;;2.70;99.90;;;;;;5044866;28;20183;-59
2024/03/12 02:03:34;;;;;;;4.60;3.07;;;2.70;99.90;;;;;;5042766;28;20424;-59
2024/03/12 02:06:00;;;;;;;3.83;3.23;;;2.60;99.90;;;;;;5047502;28;20215;-58
2024/03/12 02:08:26;;;;;;;4.13;3.63;;;2.60;99.90;;;;;;5040736;28;20815;-59
2024/03/12 02:10:51;;;;;;;6.33;2.90;;;2.60;99.90;;;;;;5036807;28;20265;-59
2024/03/12 02:13:17;;;;;;;6.70;3.90;;;2.60;99.90;;;;;;5044127;28;20691;-58
2024/03/12 02:15:43;;;;;;;11.57;4.20;;;2.60;99.90;;;;;;5045445;28;20952;-59
2024/03/12 02:18:09;;;;;;;18.47;5.43;;;2.60;99.90;;;;;;5045358;28;20186;-59
2024/03/12 02:20:36;;;;;;;70.17;6.83;;;2.50;99.90;;;;;;5044345;28;20187;-59
2024/03/12 02:23:02;;;;;;;47.00;5.33;;;2.50;99.90;;;;;;5035935;28;21040;-59
2024/03/12 02:25:27;;;;;;;10.83;4.87;;;2.40;99.90;;;;;;5039947;28;20468;-59
2024/03/12 02:27:53;;;;;;;75.57;6.20;;;2.40;99.90;;;;;;5025546;28;20200;-60
2024/03/12 02:30:19;;;;;;;47.60;5.63;;;2.40;99.90;;;;;;5044891;28;20191;-60
2024/03/12 02:32:47;;;;;;;35.73;5.60;;;2.30;99.90;;;;;;5041519;28;20175;-59
2024/03/12 02:35:13;;;;;;;59.80;6.53;;;2.30;99.90;;;;;;5040555;28;20261;-59
2024/03/12 02:37:39;;;;;;;152.17;9.80;;;2.30;99.90;;;;;;5043653;28;20532;-60
2024/03/12 02:40:12;;;;;;;201.30;11.07;;;2.30;99.90;;;;;;5047498;28;21165;-59
2024/03/12 02:42:38;;;;;;;117.27;8.50;;;2.20;99.90;;;;;;5044610;28;20194;-60
2024/03/12 02:45:05;;;;;;;187.93;11.33;;;2.20;99.90;;;;;;5044277;28;20511;-59
2024/03/12 02:47:30;;;;;;;39.50;5.50;;;2.20;99.90;;;;;;5044850;28;20439;-60
2024/03/12 02:49:57;;;;;;;100.03;9.57;;;2.10;99.90;;;;;;5046322;28;20813;-59
2024/03/12 02:52:26;;;;;;;132.57;8.97;;;2.10;99.90;;;;;;5044951;28;21353;-59
2024/03/12 02:54:52;;;;;;;128.87;9.40;;;2.10;99.90;;;;;;5042988;28;20420;-59
2024/03/12 02:57:21;;;;;;;73.10;6.57;;;2.00;99.90;;;;;;5041518;28;20873;-59
2024/03/12 02:59:48;;;;;;;50.73;6.00;;;2.00;99.90;;;;;;5035816;28;20623;-59
2024/03/12 03:02:13;;;;;;;57.73;6.53;;;1.90;99.90;;;;;;5040368;28;20467;-59
2024/03/12 03:04:39;;;;;;;34.93;5.80;;;1.90;99.90;;;;;;5046169;28;20428;-58
2024/03/12 03:07:05;;;;;;;22.53;5.30;;;1.90;99.90;;;;;;5046084;28;20209;-58
2024/03/12 03:09:31;;;;;;;18.10;5.30;;;1.90;99.90;;;;;;5045900;28;20472;-59
2024/03/12 03:11:59;;;;;;;54.40;7.63;;;1.90;99.90;;;;;;5042371;28;20233;-59
2024/03/12 03:14:25;;;;;;;21.97;4.83;;;1.90;99.90;;;;;;5042852;28;20176;-60
2024/03/12 03:16:53;;;;;;;29.47;5.00;;;1.90;99.90;;;;;;5038258;28;20412;-59
2024/03/12 03:19:19;;;;;;;36.60;4.80;;;1.80;99.90;;;;;;5042886;28;20673;-58
2024/03/12 03:21:45;;;;;;;34.90;5.67;;;1.80;99.90;;;;;;5040003;28;20427;-59
2024/03/12 03:24:11;;;;;;;26.77;5.73;;;1.80;99.90;;;;;;5048925;28;20432;-59
2024/03/12 03:26:36;;;;;;;9.10;4.40;;;1.70;99.90;;;;;;5045424;28;20568;-60
2024/03/12 03:29:03;;;;;;;10.43;6.00;;;1.70;99.90;;;;;;5045099;28;20844;-59
2024/03/12 03:31:29;;;;;;;17.10;6.90;;;1.70;99.90;;;;;;5044781;28;20167;-59
2024/03/12 03:33:58;;;;;;;30.57;5.80;;;1.60;99.90;;;;;;5045692;28;20433;-60
2024/03/12 03:36:26;;;;;;;21.60;6.13;;;1.60;99.90;;;;;;5050017;28;20171;-59
2024/03/12 03:38:52;;;;;;;71.50;7.03;;;1.60;99.90;;;;;;5047501;28;20501;-59
2024/03/12 03:41:17;;;;;;;12.77;5.40;;;1.60;99.90;;;;;;5043799;28;20482;-60
2024/03/12 03:43:43;;;;;;;20.43;6.97;;;1.60;99.90;;;;;;5027824;28;20419;-59
2024/03/12 03:46:09;;;;;;;13.00;7.20;;;1.50;99.90;;;;;;5045332;28;20218;-59
2024/03/12 03:48:34;;;;;;;14.90;6.60;;;1.50;99.90;;;;;;5047588;28;20274;-59
2024/03/12 03:51:01;;;;;;;16.33;6.47;;;1.50;99.90;;;;;;5059747;23;20253;-61
2024/03/12 03:53:27;;;;;;;20.40;7.20;;;1.50;99.90;;;;;;5030675;28;20172;-59
2024/03/12 03:55:54;;;;;;;21.27;7.00;;;1.60;99.90;;;;;;5029792;28;20447;-62
2024/03/12 03:58:22;;;;;;;14.80;6.60;;;1.60;99.90;;;;;;5028927;28;20432;-61
2024/03/12 04:00:50;;;;;;;18.73;7.33;;;1.60;99.90;;;;;;5015400;28;20461;-61
2024/03/12 04:03:18;;;;;;;18.70;7.90;;;1.60;99.90;;;;;;5011391;28;20427;-61
2024/03/12 04:05:44;;;;;;;17.27;9.13;;;1.60;99.90;;;;;;5009668;28;20463;-62
2024/03/12 04:08:09;;;;;;;15.00;8.10;;;1.60;99.90;;;;;;5013988;28;20454;-59
2024/03/12 04:10:35;;;;;;;16.10;8.27;;;1.60;99.90;;;;;;5008267;28;20211;-61
2024/03/12 04:13:01;;;;;;;19.80;8.70;;;1.60;99.90;;;;;;5009213;28;20168;-62
2024/03/12 04:15:28;;;;;;;16.30;8.83;;;1.60;99.90;;;;;;5009669;28;20182;-61
2024/03/12 04:17:54;;;;;;;25.43;8.07;;;1.60;99.90;;;;;;5008555;28;20185;-61
2024/03/12 04:20:21;;;;;;;19.27;7.53;;;1.50;99.90;;;;;;5005402;28;20857;-61
2024/03/12 04:22:47;;;;;;;14.53;6.83;;;1.50;99.90;;;;;;5005120;28;21080;-60
2024/03/12 04:25:15;;;;;;;11.00;6.23;;;1.50;99.90;;;;;;5008882;28;20470;-61
2024/03/12 04:27:41;;;;;;;12.77;7.23;;;1.50;99.90;;;;;;5009040;28;20419;-61
2024/03/12 04:30:12;;;;;;;12.83;7.30;;;1.50;99.90;;;;;;5009467;28;20442;-60
2024/03/12 04:32:39;;;;;;;11.90;7.07;;;1.50;99.90;;;;;;5007674;28;21110;-62
2024/03/12 04:35:05;;;;;;;12.63;7.60;;;1.50;99.90;;;;;;5007502;28;20424;-61
2024/03/12 04:37:34;;;;;;;11.93;7.43;;;1.50;99.90;;;;;;5007214;28;20430;-60
2024/03/12 04:40:00;;;;;;;12.30;6.83;;;1.50;99.90;;;;;;5009292;28;20435;-60
2024/03/12 04:42:29;;;;;;;13.53;7.17;;;1.50;99.90;;;;;;5008365;28;20502;-62
2024/03/12 04:44:56;;;;;;;14.27;6.93;;;1.50;99.90;;;;;;5007064;28;20455;-60
2024/03/12 04:47:22;;;;;;;12.43;7.70;;;1.60;99.90;;;;;;5009313;28;20457;-60
2024/03/12 04:49:47;;;;;;;9.20;5.97;;;1.60;99.90;;;;;;5005947;28;20517;-62
2024/03/12 04:52:14;;;;;;;12.30;6.03;;;1.60;99.90;;;;;;5004896;28;21166;-61
2024/03/12 04:54:39;;;;;;;9.43;5.57;;;1.70;99.90;;;;;;4991736;28;20183;-60
2024/03/12 04:57:07;;;;;;;10.37;5.90;;;1.70;99.90;;;;;;5008158;28;20415;-61
2024/03/12 04:59:32;;;;;;;9.60;5.90;;;1.70;99.90;;;;;;5008621;28;20176;-62
2024/03/12 05:01:59;;;;;;;13.20;7.00;;;1.70;99.90;;;;;;5006044;28;20438;-62
2024/03/12 05:04:25;;;;;;;11.23;6.27;;;1.70;99.90;;;;;;5001512;28;20170;-62
2024/03/12 05:06:51;;;;;;;11.57;6.80;;;1.70;99.90;;;;;;5007747;28;20551;-61
2024/03/12 05:09:17;;;;;;;15.70;7.20;;;1.70;99.90;;;;;;5005082;28;20178;-60
2024/03/12 05:11:47;;;;;;;10.83;6.17;;;1.70;99.90;;;;;;5003886;28;20207;-60
2024/03/12 05:14:13;;;;;;;10.80;6.70;;;1.70;99.90;;;;;;5001336;28;21783;-60
2024/03/12 05:16:39;;;;;;;11.63;6.90;;;1.70;99.90;;;;;;5000666;28;21002;-60
2024/03/12 05:19:05;;;;;;;11.90;6.83;;;1.70;99.90;;;;;;4998079;28;20189;-61
2024/03/12 05:21:31;;;;;;;11.83;6.53;;;1.70;99.90;;;;;;5006654;28;20230;-61
2024/03/12 05:23:57;;;;;;;11.77;6.87;;;1.70;99.90;;;;;;4986704;28;20428;-60
2024/03/12 05:26:26;;;;;;;10.07;6.40;;;1.70;99.90;;;;;;5006812;28;20622;-60
2024/03/12 05:28:57;;;;;;;20.53;6.57;;;1.70;99.90;;;;;;4998988;28;20808;-60
2024/03/12 05:31:34;;;;;;;12.77;6.87;;;1.70;99.90;;;;;;5003212;28;20456;-60
2024/03/12 05:34:01;;;;;;;11.90;6.50;;;1.70;99.90;;;;;;5000878;28;20453;-60
2024/03/12 05:36:40;;;;;;;14.03;6.47;;;1.70;99.90;;;;;;5000820;28;20486;-61
2024/03/12 05:39:47;;;;;;;9.87;6.20;;;1.70;99.90;;;;;;4999232;28;20451;-59
2024/03/12 05:50:14;;;;;;;12.07;6.50;;;1.70;99.90;;;;;;4998967;28;20482;-52
2024/03/12 05:52:40;;;;;;;17.10;7.70;;;1.70;99.90;;;;;;4996799;28;20441;-60
2024/03/12 05:55:06;;;;;;;12.60;7.23;;;1.70;99.90;;;;;;5001379;28;20439;-60
2024/03/12 05:57:33;;;;;;;12.50;7.43;;;1.70;99.90;;;;;;4996439;28;20187;-59
2024/03/12 05:59:59;;;;;;;19.90;8.57;;;1.70;99.90;;;;;;5001345;28;20915;-59
2024/03/12 06:02:26;;;;;;;13.93;7.13;;;1.70;99.90;;;;;;5001877;28;20435;-60
2024/03/12 06:04:52;;;;;;;13.77;7.00;;;1.80;99.90;;;;;;5005525;28;20605;-60
2024/03/12 06:07:18;;;;;;;15.93;8.83;;;1.80;99.90;;;;;;5007100;28;20481;-62
2024/03/12 06:09:44;;;;;;;13.20;7.90;;;1.80;99.90;;;;;;5005162;28;20808;-62
2024/03/12 06:12:09;;;;;;;12.80;7.27;;;1.80;99.90;;;;;;5001277;28;20490;-60
2024/03/12 06:14:36;;;;;;;13.30;7.10;;;1.90;99.90;;;;;;4994302;28;20183;-59
2024/03/12 06:17:01;;;;;;;12.90;7.57;;;1.90;99.90;;;;;;5004152;28;20706;-57
2024/03/12 06:19:27;;;;;;;15.67;8.00;;;2.00;99.90;;;;;;5004326;28;20470;-60
2024/03/12 06:21:52;;;;;;;11.83;7.40;;;2.10;99.90;;;;;;5001006;28;20230;-60
2024/03/12 06:24:18;;;;;;;12.07;7.43;;;2.10;99.90;;;;;;5004680;28;20713;-60
2024/03/12 06:26:44;;;;;;;13.23;7.90;;;2.10;99.90;;;;;;5001983;28;20204;-60
2024/03/12 06:29:09;;;;;;;16.37;8.70;;;2.20;99.90;;;;;;5002036;28;20230;-60
2024/03/12 06:31:35;;;;;;;18.43;7.93;;;2.20;99.90;;;;;;5004762;28;20198;-58
2024/03/12 06:34:01;;;;;;;22.57;9.10;;;2.30;99.90;;;;;;5002574;28;20181;-60
2024/03/12 06:36:27;;;;;;;18.70;9.60;;;2.30;99.90;;;;;;5001501;28;20188;-60
2024/03/12 06:38:52;;;;;;;16.70;8.57;;;2.30;99.90;;;;;;5004741;28;20441;-60
2024/03/12 06:41:18;;;;;;;13.53;7.90;;;2.40;99.90;;;;;;5002736;28;20257;-58
2024/03/12 06:43:44;;;;;;;13.40;7.90;;;2.40;99.90;;;;;;5001814;28;20654;-59
2024/03/12 06:46:16;;;;;;;15.40;8.20;;;2.40;99.90;;;;;;5006417;28;20466;-60
2024/03/12 06:48:41;;;;;;;23.20;8.47;;;2.40;99.90;;;;;;5003160;28;20177;-60
2024/03/12 06:51:07;;;;;;;13.83;8.27;;;2.40;99.90;;;;;;5005767;28;20501;-61
2024/03/12 06:53:35;;;;;;;18.20;9.03;;;2.50;99.90;;;;;;5006178;28;20258;-60
2024/03/12 06:56:04;;;;;;;13.33;7.90;;;2.50;99.90;;;;;;5006602;28;20177;-60
2024/03/12 06:58:30;;;;;;;21.23;7.80;;;2.60;99.90;;;;;;5005897;28;20469;-60
2024/03/12 07:00:56;;;;;;;11.40;6.40;;;2.70;99.90;;;;;;5005453;28;20481;-60
2024/03/12 07:03:22;;;;;;;11.33;6.57;;;2.80;99.90;;;;;;4999329;28;20241;-60
2024/03/12 07:05:49;;;;;;;9.87;6.20;;;3.00;99.90;;;;;;5006663;28;20915;-62
2024/03/12 07:08:17;;;;;;;8.57;6.20;;;3.10;99.90;;;;;;4998721;28;21117;-60
2024/03/12 07:10:43;;;;;;;13.80;6.10;;;3.30;99.90;;;;;;5004108;28;20971;-58
2024/03/12 07:13:09;;;;;;;9.00;6.17;;;3.50;99.90;;;;;;5000545;28;20427;-60
2024/03/12 07:15:41;;;;;;;8.67;6.27;;;3.70;99.90;;;;;;5000939;28;20435;-61
2024/03/12 07:18:07;;;;;;;7.73;5.27;;;3.90;99.90;;;;;;4999999;28;20436;-60
2024/03/12 07:20:34;;;;;;;11.40;5.30;;;4.00;99.90;;;;;;4999644;28;20520;-60
2024/03/12 07:23:00;;;;;;;9.03;4.50;;;4.20;99.90;;;;;;5004631;28;20439;-62
2024/03/12 07:25:26;;;;;;;5.13;3.80;;;4.30;99.90;;;;;;5003951;28;20466;-61
2024/03/12 07:27:53;;;;;;;9.57;3.47;;;4.40;99.90;;;;;;5001821;28;20514;-61
2024/03/12 07:30:20;;;;;;;17.70;4.60;;;4.50;99.90;;;;;;5005173;28;20192;-60
2024/03/12 07:32:47;;;;;;;3.50;3.03;;;4.70;99.90;;;;;;5004185;28;20849;-61
2024/03/12 07:35:13;;;;;;;7.93;2.80;;;4.80;99.90;;;;;;5000233;28;20431;-60
2024/03/12 07:37:40;;;;;;;3.13;2.83;;;4.90;99.90;;;;;;5000383;28;20539;-60
2024/03/12 07:40:12;;;;;;;2.40;2.20;;;4.90;99.90;;;;;;5005168;28;20874;-60
2024/03/12 07:42:41;;;;;;;7.33;2.60;;;4.90;99.90;;;;;;5005555;28;20589;-60
2024/03/12 07:45:08;;;;;;;3.20;2.47;;;5.00;99.90;;;;;;5002511;28;20475;-61
2024/03/12 07:47:35;;;;;;;2.60;2.33;;;5.00;99.90;;;;;;5002362;28;20431;-59
2024/03/12 07:50:05;;;;;;;2.57;2.20;;;5.00;99.90;;;;;;5006540;28;20493;-61
2024/03/12 07:52:31;;;;;;;4.50;2.50;;;5.00;99.90;;;;;;5006076;28;21037;-60
2024/03/12 07:54:57;;;;;;;2.90;2.60;;;5.00;99.90;;;;;;5004029;28;20467;-60
2024/03/12 07:57:24;;;;;;;2.43;2.17;;;5.10;99.90;;;;;;5003664;28;20177;-60
2024/03/12 07:59:51;;;;;;;2.73;2.53;;;5.10;99.90;;;;;;5003245;28;20444;-60
2024/03/12 08:02:21;;;;;;;2.33;2.13;;;5.10;99.90;;;;;;4999432;28;21139;-59
2024/03/12 08:04:47;;;;;;;2.30;2.10;;;5.10;99.90;;;;;;5003741;28;20436;-60
2024/03/12 08:07:13;;;;;;;4.67;2.57;;;5.10;99.90;;;;;;5003395;28;20524;-60
2024/03/12 08:09:39;;;;;;;2.13;1.93;;;5.10;99.90;;;;;;5005917;28;21131;-60
2024/03/12 08:12:07;;;;;;;3.70;2.03;;;5.10;99.90;;;;;;5008577;28;20517;-60
2024/03/12 08:14:35;;;;;;;2.70;2.10;;;5.10;99.90;;;;;;5007115;28;20459;-60
2024/03/12 08:17:03;;;;;;;3.00;2.30;;;5.10;99.90;;;;;;5007249;28;20468;-60
2024/03/12 08:19:28;;;;;;;7.37;2.10;;;5.10;99.90;;;;;;5006841;28;20434;-59
2024/03/12 08:21:54;;;;;;;2.20;2.00;;;5.10;99.90;;;;;;5007449;28;20838;-61
2024/03/12 08:24:20;;;;;;;3.63;2.10;;;5.10;99.90;;;;;;5003598;28;20275;-60
2024/03/12 08:26:47;;;;;;;2.20;2.00;;;5.10;99.90;;;;;;5002425;28;20258;-54
2024/03/12 08:29:13;;;;;;;3.17;2.10;;;5.20;99.90;;;;;;5008195;28;20469;-59
2024/03/12 08:31:39;;;;;;;2.00;1.80;;;5.20;99.90;;;;;;5004208;28;20442;-59
2024/03/12 08:34:05;;;;;;;2.77;2.00;;;5.30;99.90;;;;;;5006717;28;20446;-60
2024/03/12 08:36:31;;;;;;;2.33;1.90;;;5.30;99.90;;;;;;5009511;28;20203;-59
2024/03/12 08:38:59;;;;;;;2.03;1.80;;;5.30;99.90;;;;;;5007628;28;20431;-60
2024/03/12 08:41:26;;;;;;;1.80;1.70;;;5.40;99.90;;;;;;5008205;28;20451;-60
2024/03/12 08:43:51;;;;;;;1.93;1.70;;;5.50;99.90;;;;;;5004281;28;20493;-60
2024/03/12 08:46:18;;;;;;;4.13;1.50;;;5.60;99.90;;;;;;5007902;28;20459;-65
2024/03/12 08:48:44;;;;;;;5.93;1.43;;;5.60;99.90;;;;;;5007892;28;20315;-60
2024/03/12 08:51:11;;;;;;;3.17;1.80;;;5.60;99.90;;;;;;5007485;28;20554;-60
2024/03/12 08:53:37;;;;;;;2.90;2.00;;;5.70;99.90;;;;;;5003491;28;20547;-60
2024/03/12 08:56:03;;;;;;;8.43;2.20;;;5.70;99.90;;;;;;5006431;28;20428;-60
2024/03/12 08:58:29;;;;;;;4.33;2.30;;;5.80;99.90;;;;;;5007304;28;20562;-61
2024/03/12 09:00:57;;;;;;;2.97;2.00;;;5.80;99.90;;;;;;5006131;28;20467;-60
2024/03/12 09:03:22;;;;;;;2.00;1.63;;;5.90;99.90;;;;;;5007367;28;20276;-60
2024/03/12 09:05:48;;;;;;;2.13;1.93;;;5.90;99.90;;;;;;5007428;28;20554;-59
2024/03/12 09:08:14;;;;;;;2.27;1.77;;;5.90;99.90;;;;;;4989072;28;20276;-60
2024/03/12 09:10:41;;;;;;;3.03;2.27;;;6.00;99.90;;;;;;5007619;28;20189;-60
2024/03/12 09:13:08;;;;;;;2.47;1.80;;;6.00;99.90;;;;;;5004719;28;20454;-60
2024/03/12 09:15:34;;;;;;;6.90;2.20;;;6.00;99.90;;;;;;5006793;28;20411;-60
2024/03/12 09:18:04;;;;;;;2.40;2.20;;;6.10;99.90;;;;;;4982803;28;20439;-66
2024/03/12 09:20:30;;;;;;;3.77;1.90;;;6.10;99.90;;;;;;5005828;28;20866;-60
2024/03/12 09:22:56;;;;;;;2.60;2.20;;;6.20;99.90;;;;;;5002960;28;20506;-60
2024/03/12 09:25:23;;;;;;;4.23;2.30;;;6.20;99.90;;;;;;5009312;28;20519;-62
2024/03/12 09:27:49;;;;;;;3.27;1.30;;;6.30;99.90;;;;;;5004220;28;20173;-59
2024/03/12 09:30:16;;;;;;;2.07;1.87;;;6.30;99.90;;;;;;5004736;28;20447;-59
2024/03/12 09:32:44;;;;;;;2.50;2.03;;;6.40;99.90;;;;;;4997116;28;20312;-60
2024/03/12 09:35:09;;;;;;;4.60;1.93;;;6.50;99.90;;;;;;5006375;28;20432;-60
2024/03/12 09:37:37;;;;;;;2.63;2.07;;;6.60;99.90;;;;;;5007761;28;20960;-60
2024/03/12 09:40:05;;;;;;;7.53;4.20;;;6.70;99.90;;;;;;5007063;28;20204;-60
2024/03/12 09:42:36;;;;;;;5.17;2.50;;;6.80;99.90;;;;;;4987848;28;20431;-59
2024/03/12 09:45:02;;;;;;;2.60;2.00;;;6.90;99.90;;;;;;5008421;28;20416;-60
2024/03/12 09:47:29;;;;;;;2.07;1.93;;;7.10;99.90;;;;;;5008030;28;20798;-60
2024/03/12 09:49:55;;;;;;;1.97;1.67;;;7.10;97.20;;;;;;5008435;28;20546;-57
2024/03/12 09:52:21;;;;;;;2.00;1.63;;;7.10;96.90;;;;;;5002400;28;20423;-57
2024/03/12 09:54:48;;;;;;;2.00;1.77;;;7.10;95.30;;;;;;5008450;28;20797;-60
2024/03/12 09:57:16;;;;;;;1.63;1.30;;;7.10;95.90;;;;;;5005097;28;20222;-56
2024/03/12 09:59:41;;;;;;;2.03;1.47;;;7.10;95.50;;;;;;5002744;28;20443;-60
2024/03/12 10:02:09;;;;;;;2.10;1.90;;;7.10;92.50;;;;;;5006954;28;20891;-61
2024/03/12 10:04:34;;;;;;;1.93;1.40;;;7.00;93.30;;;;;;5004118;28;20173;-58
2024/03/12 10:07:00;;;;;;;1.70;1.60;;;7.00;93.10;;;;;;5000793;28;20465;-59
2024/03/12 10:09:29;;;;;;;1.73;1.60;;;7.00;93.60;;;;;;5005943;28;20610;-57
2024/03/12 10:11:55;;;;;;;1.93;1.70;;;7.00;92.90;;;;;;5004210;28;20179;-56
2024/03/12 10:14:22;;;;;;;1.90;1.70;;;7.10;92.20;;;;;;5005815;28;20926;-56
2024/03/12 10:16:49;;;;;;;2.50;2.07;;;7.10;93.00;;;;;;4998715;28;20541;-63
2024/03/12 10:19:15;;;;;;;1.80;1.70;;;7.10;94.10;;;;;;4999807;28;20502;-59
2024/03/12 10:21:41;;;;;;;2.20;1.90;;;7.20;94.80;;;;;;4999127;28;20479;-59
2024/03/12 10:24:14;;;;;;;3.23;1.87;;;7.20;94.40;;;;;;5002819;28;20424;-60
2024/03/12 10:26:41;;;;;;;3.00;2.10;;;7.30;91.90;;;;;;5001979;28;20466;-58
2024/03/12 10:29:11;;;;;;;2.70;1.90;;;7.40;92.20;;;;;;5000128;28;20426;-58
2024/03/12 10:31:40;;;;;;;1.90;1.73;;;7.50;91.00;;;;;;4999475;28;20894;-58
2024/03/12 10:34:10;;;;;;;3.17;2.00;;;7.50;89.40;;;;;;4997244;28;20452;-57
2024/03/12 10:36:37;;;;;;;2.93;2.13;;;7.60;88.00;;;;;;4999620;28;20427;-57
2024/03/12 10:39:12;;;;;;;3.43;2.53;;;7.60;84.40;;;;;;4999862;28;20442;-59
2024/03/12 10:41:43;;;;;;;2.77;2.10;;;7.50;83.10;;;;;;5002221;28;20455;-57
2024/03/12 10:44:10;;;;;;;3.00;2.17;;;7.60;82.40;;;;;;5004465;28;20451;-56
2024/03/12 10:46:40;;;;;;;4.27;2.67;;;7.60;84.60;;;;;;5005412;28;20992;-58
2024/03/12 10:49:11;;;;;;;4.30;2.20;;;7.60;82.80;;;;;;5002820;28;20431;-57
2024/03/12 10:51:43;;;;;;;4.13;2.40;;;7.60;85.00;;;;;;4998547;28;21115;-56
2024/03/12 10:54:21;;;;;;;3.73;2.60;;;7.60;84.20;;;;;;5002419;28;20431;-58
2024/03/12 10:56:48;;;;;;;5.47;2.20;;;7.50;81.30;;;;;;4998399;28;20479;-58
2024/03/12 10:59:16;;;;;;;4.40;3.20;;;7.50;82.70;;;;;;4996729;28;20431;-57
2024/03/12 11:01:42;;;;;;;4.50;2.50;;;7.50;84.30;;;;;;5001581;28;20517;-57
2024/03/12 11:04:09;;;;;;;3.37;2.40;;;7.50;85.80;;;;;;5001273;28;20439;-58
2024/03/12 11:06:36;;;;;;;3.30;2.43;;;7.50;87.20;;;;;;4996813;28;20475;-59
2024/03/12 11:09:04;;;;;;;4.10;2.60;;;7.50;90.40;;;;;;4993676;28;20501;-59
2024/03/12 11:11:30;;;;;;;3.93;2.40;;;7.50;91.30;;;;;;5002443;28;20448;-58
2024/03/12 11:13:57;;;;;;;5.07;3.07;;;7.50;91.80;;;;;;5000527;28;20490;-56
2024/03/12 11:16:29;;;;;;;2.83;2.40;;;7.50;92.20;;;;;;5000641;28;20435;-54
2024/03/12 11:18:56;;;;;;;4.23;2.50;;;7.50;92.70;;;;;;4998914;28;20809;-57
2024/03/12 11:21:30;;;;;;;3.17;2.33;;;7.60;91.90;;;;;;5003998;28;20462;-55
2024/03/12 11:23:56;;;;;;;3.37;2.57;;;7.60;90.90;;;;;;5004880;28;20427;-58
2024/03/12 11:26:34;;;;;;;3.83;2.63;;;7.60;91.10;;;;;;4999657;28;20459;-57
2024/03/12 11:28:59;;;;;;;3.63;2.50;;;7.60;92.00;;;;;;5000313;28;20481;-59
2024/03/12 11:31:35;;;;;;;4.30;3.20;;;7.60;92.60;;;;;;5003088;28;20447;-58
2024/03/12 11:34:01;;;;;;;3.87;3.13;;;7.60;94.40;;;;;;4995912;28;20611;-59
2024/03/12 11:36:39;;;;;;;4.47;2.90;;;7.50;95.50;;;;;;4992778;28;20440;-57
2024/03/12 11:39:15;;;;;;;6.00;3.30;;;7.40;95.40;;;;;;4996269;28;20604;-57
2024/03/12 11:42:05;;;;;;;7.03;4.50;;;7.40;97.10;;;;;;4999961;28;20498;-53
2024/03/12 11:44:54;;;;;;;8.30;4.43;;;7.40;98.70;;;;;;5003319;28;20461;-57
2024/03/12 11:47:29;;;;;;;7.53;3.80;;;7.50;99.90;;;;;;5005824;28;20438;-59
2024/03/12 11:49:54;;;;;;;4.80;3.60;;;7.80;99.90;;;;;;5004151;28;20525;-58
2024/03/12 11:52:27;;;;;;;4.07;3.60;;;8.20;99.60;;;;;;5007082;28;20426;-59
2024/03/12 11:54:53;;;;;;;6.60;3.97;;;8.50;90.80;;;;;;5002929;28;20505;-59
2024/03/12 11:57:25;;;;;;;5.50;3.70;;;8.60;87.00;;;;;;4998196;28;20481;-59
2024/03/12 11:59:51;;;;;;;5.80;3.40;;;9.00;86.90;;;;;;5004678;28;20438;-57
2024/03/12 12:02:20;;;;;;;6.73;4.10;;;9.70;85.20;;;;;;5003197;28;20438;-59
2024/03/12 12:04:52;;;;;;;6.80;3.13;;;10.40;76.80;;;;;;5004162;28;20176;-59
2024/03/12 12:07:27;;;;;;;8.13;4.27;;;11.20;67.60;;;;;;5002235;28;20434;-60
2024/03/12 12:09:53;;;;;;;6.03;4.00;;;11.50;61.20;;;;;;5007072;28;20497;-58
2024/03/12 12:12:19;;;;;;;7.43;3.80;;;11.50;56.80;;;;;;5004179;28;20439;-60
2024/03/12 12:14:47;;;;;;;6.00;4.10;;;11.30;57.10;;;;;;5000539;28;20188;-60
2024/03/12 12:17:24;;;;;;;5.90;4.03;;;11.20;58.40;;;;;;5005908;28;22296;-58
2024/03/12 12:20:13;;;;;;;6.53;3.93;;;11.00;57.60;;;;;;5001718;28;20505;-59
2024/03/12 12:22:44;;;;;;;5.63;3.53;;;10.70;57.30;;;;;;5001244;28;20446;-58
2024/03/12 12:25:11;;;;;;;9.10;4.40;;;10.40;58.30;;;;;;5004430;28;20517;-59
2024/03/12 12:27:38;;;;;;;8.53;3.40;;;10.10;58.50;;;;;;5000203;28;20494;-57
2024/03/12 12:30:07;;;;;;;5.70;3.90;;;9.70;59.20;;;;;;5005484;28;20530;-59
2024/03/12 12:32:34;;;;;;;6.73;3.63;;;9.50;60.30;;;;;;5002081;28;20525;-57
2024/03/12 12:35:02;;;;;;;5.60;3.33;;;9.40;60.80;;;;;;4998999;28;20470;-57
2024/03/12 12:37:28;;;;;;;6.70;4.47;;;9.20;62.00;;;;;;5004362;28;20459;-58
2024/03/12 12:39:54;;;;;;;4.90;3.43;;;9.10;61.60;;;;;;5002815;28;20968;-58
2024/03/12 12:42:21;;;;;;;6.63;3.63;;;9.00;62.70;;;;;;5013320;28;20925;-60
2024/03/12 12:44:53;;;;;;;6.70;4.00;;;9.00;63.30;;;;;;5008992;28;20193;-58
2024/03/12 12:47:21;;;;;;;6.47;3.80;;;9.10;63.90;;;;;;4999143;28;20424;-57
2024/03/12 12:49:58;;;;;;;7.57;4.17;;;9.10;64.00;;;;;;5003956;28;20518;-56
2024/03/12 12:52:24;;;;;;;6.70;4.17;;;9.20;64.20;;;;;;5006325;28;20929;-60
2024/03/12 12:54:57;;;;;;;6.00;3.80;;;9.20;63.90;;;;;;5005189;28;20485;-57
2024/03/12 12:57:30;;;;;;;10.50;4.17;;;9.20;63.60;;;;;;5002090;28;20532;-57
2024/03/12 12:59:57;;;;;;;10.67;5.10;;;9.20;63.60;;;;;;5001804;28;20447;-58
2024/03/12 13:02:23;;;;;;;6.03;3.93;;;9.20;63.10;;;;;;5005790;28;20527;-58